sensor_id;sensor_type;location;lat;lon;timestamp;P1;durP1;ratioP1;P2;durP2;ratioP2
4057;SDS011;2044;48.692;9.020;2023-02-01T00:01:44;6.33;;;3.00;;
4057;SDS011;2044;48.692;9.020;2023-02-01T00:04:11;4.83;;;2.50;;
4057;SDS011;2044;48.692;9.020;2023-02-01T00:06:39;7.50;;;3.07;;
4057;SDS011;2044;48.692;9.020;2023-02-01T00:09:06;3.17;;;2.50;;
4057;SDS011;2044;48.692;9.020;2023-02-01T00:11:32;3.23;;;2.83;;
4057;SDS011;2044;48.692;9.020;2023-02-01T00:14:00;4.27;;;3.47;;
4057;SDS011;2044;48.692;9.020;2023-02-01T00:16:27;4.27;;;2.63;;
4057;SDS011;2044;48.692;9.020;2023-02-01T00:18:57;2.80;;;2.20;;
4057;SDS011;2044;48.692;9.020;2023-02-01T00:21:25;4.60;;;3.33;;
4057;SDS011;2044;48.692;9.020;2023-02-01T00:23:54;2.90;;;1.87;;
4057;SDS011;2044;48.692;9.020;2023-02-01T00:26:22;3.33;;;2.70;;
4057;SDS011;2044;48.692;9.020;2023-02-01T00:28:53;4.70;;;2.70;;
4057;SDS011;2044;48.692;9.020;2023-02-01T00:31:20;7.40;;;3.60;;
4057;SDS011;2044;48.692;9.020;2023-02-01T00:33:47;2.70;;;2.33;;
4057;SDS011;2044;48.692;9.020;2023-02-01T00:36:14;3.57;;;2.30;;
4057;SDS011;2044;48.692;9.020;2023-02-01T00:38:41;4.27;;;3.10;;
4057;SDS011;2044;48.692;9.020;2023-02-01T00:41:11;4.87;;;2.40;;
4057;SDS011;2044;48.692;9.020;2023-02-01T00:43:39;4.10;;;2.60;;
4057;SDS011;2044;48.692;9.020;2023-02-01T00:46:06;3.50;;;2.30;;
4057;SDS011;2044;48.692;9.020;2023-02-01T00:48:33;2.93;;;2.20;;
4057;SDS011;2044;48.692;9.020;2023-02-01T00:51:00;3.93;;;2.43;;
4057;SDS011;2044;48.692;9.020;2023-02-01T00:53:27;3.17;;;1.83;;
4057;SDS011;2044;48.692;9.020;2023-02-01T00:55:54;2.70;;;2.00;;
4057;SDS011;2044;48.692;9.020;2023-02-01T00:58:22;2.90;;;2.13;;
4057;SDS011;2044;48.692;9.020;2023-02-01T01:00:56;2.40;;;1.83;;
4057;SDS011;2044;48.692;9.020;2023-02-01T01:03:26;1.53;;;1.43;;
4057;SDS011;2044;48.692;9.020;2023-02-01T01:05:56;3.73;;;2.10;;
4057;SDS011;2044;48.692;9.020;2023-02-01T01:08:23;3.10;;;1.80;;
4057;SDS011;2044;48.692;9.020;2023-02-01T01:10:49;2.40;;;1.57;;
4057;SDS011;2044;48.692;9.020;2023-02-01T01:13:16;4.23;;;2.00;;
4057;SDS011;2044;48.692;9.020;2023-02-01T01:15:44;3.13;;;2.37;;
4057;SDS011;2044;48.692;9.020;2023-02-01T01:18:11;3.97;;;2.40;;
4057;SDS011;2044;48.692;9.020;2023-02-01T01:20:38;2.63;;;2.40;;
4057;SDS011;2044;48.692;9.020;2023-02-01T01:23:06;3.43;;;2.80;;
4057;SDS011;2044;48.692;9.020;2023-02-01T01:25:36;3.50;;;2.40;;
4057;SDS011;2044;48.692;9.020;2023-02-01T01:28:04;8.03;;;3.00;;
4057;SDS011;2044;48.692;9.020;2023-02-01T01:30:31;4.70;;;2.77;;
4057;SDS011;2044;48.692;9.020;2023-02-01T01:32:59;3.20;;;2.40;;
4057;SDS011;2044;48.692;9.020;2023-02-01T01:35:25;2.27;;;1.97;;
4057;SDS011;2044;48.692;9.020;2023-02-01T01:37:54;3.57;;;2.57;;
4057;SDS011;2044;48.692;9.020;2023-02-01T01:40:21;8.00;;;2.93;;
4057;SDS011;2044;48.692;9.020;2023-02-01T01:42:48;5.40;;;2.90;;
4057;SDS011;2044;48.692;9.020;2023-02-01T01:45:20;6.93;;;3.67;;
4057;SDS011;2044;48.692;9.020;2023-02-01T01:47:50;8.27;;;4.47;;
4057;SDS011;2044;48.692;9.020;2023-02-01T01:50:22;5.33;;;3.87;;
4057;SDS011;2044;48.692;9.020;2023-02-01T01:52:52;4.37;;;3.13;;
4057;SDS011;2044;48.692;9.020;2023-02-01T01:55:21;5.63;;;3.67;;
4057;SDS011;2044;48.692;9.020;2023-02-01T01:57:51;4.60;;;3.47;;
4057;SDS011;2044;48.692;9.020;2023-02-01T02:00:23;5.50;;;4.07;;
4057;SDS011;2044;48.692;9.020;2023-02-01T02:02:52;5.47;;;4.10;;
4057;SDS011;2044;48.692;9.020;2023-02-01T02:05:24;6.30;;;3.90;;
4057;SDS011;2044;48.692;9.020;2023-02-01T02:07:53;7.30;;;3.60;;
4057;SDS011;2044;48.692;9.020;2023-02-01T02:10:24;5.23;;;3.23;;
4057;SDS011;2044;48.692;9.020;2023-02-01T02:13:11;6.90;;;3.87;;
4057;SDS011;2044;48.692;9.020;2023-02-01T02:15:40;8.30;;;4.63;;
4057;SDS011;2044;48.692;9.020;2023-02-01T02:18:12;4.83;;;3.57;;
4057;SDS011;2044;48.692;9.020;2023-02-01T02:26:52;5.00;;;3.60;;
4057;SDS011;2044;48.692;9.020;2023-02-01T02:32:32;3.57;;;3.13;;
4057;SDS011;2044;48.692;9.020;2023-02-01T02:35:20;5.20;;;3.20;;
4057;SDS011;2044;48.692;9.020;2023-02-01T02:37:53;4.03;;;2.77;;
4057;SDS011;2044;48.692;9.020;2023-02-01T02:40:27;4.83;;;3.50;;
4057;SDS011;2044;48.692;9.020;2023-02-01T02:43:01;6.43;;;4.33;;
4057;SDS011;2044;48.692;9.020;2023-02-01T02:45:53;5.53;;;3.53;;
4057;SDS011;2044;48.692;9.020;2023-02-01T02:48:45;4.00;;;3.00;;
4057;SDS011;2044;48.692;9.020;2023-02-01T02:51:18;5.60;;;3.50;;
4057;SDS011;2044;48.692;9.020;2023-02-01T02:54:07;7.20;;;3.00;;
4057;SDS011;2044;48.692;9.020;2023-02-01T02:56:55;4.73;;;3.53;;
4057;SDS011;2044;48.692;9.020;2023-02-01T02:59:41;4.97;;;3.20;;
4057;SDS011;2044;48.692;9.020;2023-02-01T03:02:28;8.00;;;3.40;;
4057;SDS011;2044;48.692;9.020;2023-02-01T03:05:13;5.40;;;3.20;;
4057;SDS011;2044;48.692;9.020;2023-02-01T03:07:55;3.20;;;2.20;;
4057;SDS011;2044;48.692;9.020;2023-02-01T03:10:31;3.43;;;2.63;;
4057;SDS011;2044;48.692;9.020;2023-02-01T03:13:04;3.27;;;2.97;;
4057;SDS011;2044;48.692;9.020;2023-02-01T03:15:35;5.03;;;3.53;;
4057;SDS011;2044;48.692;9.020;2023-02-01T03:18:05;3.90;;;3.23;;
4057;SDS011;2044;48.692;9.020;2023-02-01T03:20:37;3.77;;;2.80;;
4057;SDS011;2044;48.692;9.020;2023-02-01T03:23:08;6.77;;;3.20;;
4057;SDS011;2044;48.692;9.020;2023-02-01T03:25:37;3.57;;;2.47;;
4057;SDS011;2044;48.692;9.020;2023-02-01T03:28:06;3.10;;;2.17;;
4057;SDS011;2044;48.692;9.020;2023-02-01T03:30:36;3.37;;;2.70;;
4057;SDS011;2044;48.692;9.020;2023-02-01T03:33:08;3.30;;;2.63;;
4057;SDS011;2044;48.692;9.020;2023-02-01T03:35:39;5.73;;;2.97;;
4057;SDS011;2044;48.692;9.020;2023-02-01T03:38:13;4.60;;;2.17;;
4057;SDS011;2044;48.692;9.020;2023-02-01T03:40:48;7.17;;;2.97;;
4057;SDS011;2044;48.692;9.020;2023-02-01T03:43:18;7.20;;;2.67;;
4057;SDS011;2044;48.692;9.020;2023-02-01T03:45:48;4.47;;;2.20;;
4057;SDS011;2044;48.692;9.020;2023-02-01T03:48:19;4.30;;;2.80;;
4057;SDS011;2044;48.692;9.020;2023-02-01T03:50:48;3.33;;;2.47;;
4057;SDS011;2044;48.692;9.020;2023-02-01T03:53:20;3.70;;;2.73;;
4057;SDS011;2044;48.692;9.020;2023-02-01T03:55:49;3.60;;;2.27;;
4057;SDS011;2044;48.692;9.020;2023-02-01T03:58:18;3.27;;;2.47;;
4057;SDS011;2044;48.692;9.020;2023-02-01T04:00:49;4.60;;;2.63;;
4057;SDS011;2044;48.692;9.020;2023-02-01T04:03:20;2.57;;;2.33;;
4057;SDS011;2044;48.692;9.020;2023-02-01T04:05:47;2.67;;;2.10;;
4057;SDS011;2044;48.692;9.020;2023-02-01T04:08:14;2.63;;;2.23;;
4057;SDS011;2044;48.692;9.020;2023-02-01T04:10:43;4.37;;;2.70;;
4057;SDS011;2044;48.692;9.020;2023-02-01T04:13:09;2.60;;;2.10;;
4057;SDS011;2044;48.692;9.020;2023-02-01T04:15:36;6.40;;;3.87;;
4057;SDS011;2044;48.692;9.020;2023-02-01T04:18:03;2.60;;;2.40;;
4057;SDS011;2044;48.692;9.020;2023-02-01T04:20:30;3.33;;;2.40;;
4057;SDS011;2044;48.692;9.020;2023-02-01T04:22:57;3.13;;;2.83;;
4057;SDS011;2044;48.692;9.020;2023-02-01T04:25:24;2.93;;;2.40;;
4057;SDS011;2044;48.692;9.020;2023-02-01T04:27:52;4.27;;;3.10;;
4057;SDS011;2044;48.692;9.020;2023-02-01T04:30:19;4.20;;;2.70;;
4057;SDS011;2044;48.692;9.020;2023-02-01T04:32:45;4.00;;;3.10;;
4057;SDS011;2044;48.692;9.020;2023-02-01T04:35:12;2.87;;;2.37;;
4057;SDS011;2044;48.692;9.020;2023-02-01T04:37:39;6.00;;;3.20;;
4057;SDS011;2044;48.692;9.020;2023-02-01T04:40:06;4.80;;;2.90;;
4057;SDS011;2044;48.692;9.020;2023-02-01T04:42:33;9.20;;;4.63;;
4057;SDS011;2044;48.692;9.020;2023-02-01T04:45:01;6.17;;;3.20;;
4057;SDS011;2044;48.692;9.020;2023-02-01T04:47:28;5.10;;;3.50;;
4057;SDS011;2044;48.692;9.020;2023-02-01T04:49:55;3.13;;;2.83;;
4057;SDS011;2044;48.692;9.020;2023-02-01T04:52:22;3.10;;;2.43;;
4057;SDS011;2044;48.692;9.020;2023-02-01T04:54:48;4.17;;;2.90;;
4057;SDS011;2044;48.692;9.020;2023-02-01T04:57:15;4.97;;;3.43;;
4057;SDS011;2044;48.692;9.020;2023-02-01T04:59:42;3.73;;;2.77;;
4057;SDS011;2044;48.692;9.020;2023-02-01T05:02:10;4.13;;;2.70;;
4057;SDS011;2044;48.692;9.020;2023-02-01T05:04:36;5.67;;;4.27;;
4057;SDS011;2044;48.692;9.020;2023-02-01T05:07:03;3.50;;;2.20;;
4057;SDS011;2044;48.692;9.020;2023-02-01T05:09:30;4.90;;;2.50;;
4057;SDS011;2044;48.692;9.020;2023-02-01T05:11:56;7.57;;;2.53;;
4057;SDS011;2044;48.692;9.020;2023-02-01T05:14:41;2.27;;;2.00;;
4057;SDS011;2044;48.692;9.020;2023-02-01T05:17:08;4.13;;;2.80;;
4057;SDS011;2044;48.692;9.020;2023-02-01T05:19:36;3.30;;;2.80;;
4057;SDS011;2044;48.692;9.020;2023-02-01T05:22:02;5.50;;;2.47;;
4057;SDS011;2044;48.692;9.020;2023-02-01T05:24:29;2.93;;;2.70;;
4057;SDS011;2044;48.692;9.020;2023-02-01T05:26:56;4.57;;;2.90;;
4057;SDS011;2044;48.692;9.020;2023-02-01T05:29:22;5.37;;;3.53;;
4057;SDS011;2044;48.692;9.020;2023-02-01T05:31:49;5.00;;;2.83;;
4057;SDS011;2044;48.692;9.020;2023-02-01T05:34:17;5.10;;;3.33;;
4057;SDS011;2044;48.692;9.020;2023-02-01T05:36:44;4.20;;;2.73;;
4057;SDS011;2044;48.692;9.020;2023-02-01T05:39:10;6.60;;;2.80;;
4057;SDS011;2044;48.692;9.020;2023-02-01T05:41:37;4.50;;;3.50;;
4057;SDS011;2044;48.692;9.020;2023-02-01T05:44:04;6.20;;;3.90;;
4057;SDS011;2044;48.692;9.020;2023-02-01T05:46:32;5.10;;;3.23;;
4057;SDS011;2044;48.692;9.020;2023-02-01T05:48:59;4.80;;;3.27;;
4057;SDS011;2044;48.692;9.020;2023-02-01T05:51:27;3.63;;;2.47;;
4057;SDS011;2044;48.692;9.020;2023-02-01T05:53:53;4.80;;;2.90;;
4057;SDS011;2044;48.692;9.020;2023-02-01T05:56:20;4.03;;;2.97;;
4057;SDS011;2044;48.692;9.020;2023-02-01T05:58:47;4.97;;;3.40;;
4057;SDS011;2044;48.692;9.020;2023-02-01T06:01:14;3.03;;;2.17;;
4057;SDS011;2044;48.692;9.020;2023-02-01T06:03:41;5.17;;;2.67;;
4057;SDS011;2044;48.692;9.020;2023-02-01T06:06:07;4.77;;;2.73;;
4057;SDS011;2044;48.692;9.020;2023-02-01T06:08:36;2.73;;;2.50;;
4057;SDS011;2044;48.692;9.020;2023-02-01T06:11:05;2.60;;;2.27;;
4057;SDS011;2044;48.692;9.020;2023-02-01T06:13:32;2.50;;;2.30;;
4057;SDS011;2044;48.692;9.020;2023-02-01T06:16:00;3.43;;;2.73;;
4057;SDS011;2044;48.692;9.020;2023-02-01T06:18:28;6.37;;;3.27;;
4057;SDS011;2044;48.692;9.020;2023-02-01T06:20:56;1.93;;;1.63;;
4057;SDS011;2044;48.692;9.020;2023-02-01T06:23:25;4.60;;;2.93;;
4057;SDS011;2044;48.692;9.020;2023-02-01T06:25:57;3.20;;;2.10;;
4057;SDS011;2044;48.692;9.020;2023-02-01T06:28:25;4.17;;;3.57;;
4057;SDS011;2044;48.692;9.020;2023-02-01T06:30:52;2.40;;;1.90;;
4057;SDS011;2044;48.692;9.020;2023-02-01T06:33:19;5.60;;;2.43;;
4057;SDS011;2044;48.692;9.020;2023-02-01T06:35:45;4.13;;;2.00;;
4057;SDS011;2044;48.692;9.020;2023-02-01T06:38:12;5.13;;;3.03;;
4057;SDS011;2044;48.692;9.020;2023-02-01T06:40:40;4.20;;;2.93;;
4057;SDS011;2044;48.692;9.020;2023-02-01T06:43:08;3.50;;;2.77;;
4057;SDS011;2044;48.692;9.020;2023-02-01T06:45:35;2.80;;;2.17;;
4057;SDS011;2044;48.692;9.020;2023-02-01T06:48:02;2.50;;;2.30;;
4057;SDS011;2044;48.692;9.020;2023-02-01T06:50:28;5.50;;;2.73;;
4057;SDS011;2044;48.692;9.020;2023-02-01T06:52:55;5.83;;;3.30;;
4057;SDS011;2044;48.692;9.020;2023-02-01T06:55:22;4.60;;;3.00;;
4057;SDS011;2044;48.692;9.020;2023-02-01T06:57:52;2.60;;;2.40;;
4057;SDS011;2044;48.692;9.020;2023-02-01T07:00:21;5.83;;;3.23;;
4057;SDS011;2044;48.692;9.020;2023-02-01T07:02:48;6.50;;;2.80;;
4057;SDS011;2044;48.692;9.020;2023-02-01T07:05:16;7.07;;;5.13;;
4057;SDS011;2044;48.692;9.020;2023-02-01T07:07:43;4.10;;;2.53;;
4057;SDS011;2044;48.692;9.020;2023-02-01T07:10:10;2.97;;;2.43;;
4057;SDS011;2044;48.692;9.020;2023-02-01T07:12:37;4.47;;;2.70;;
4057;SDS011;2044;48.692;9.020;2023-02-01T07:15:04;2.30;;;1.90;;
4057;SDS011;2044;48.692;9.020;2023-02-01T07:17:33;4.20;;;2.40;;
4057;SDS011;2044;48.692;9.020;2023-02-01T07:20:00;5.27;;;3.20;;
4057;SDS011;2044;48.692;9.020;2023-02-01T07:22:26;3.20;;;2.90;;
4057;SDS011;2044;48.692;9.020;2023-02-01T07:24:54;2.37;;;2.17;;
4057;SDS011;2044;48.692;9.020;2023-02-01T07:27:20;5.60;;;2.27;;
4057;SDS011;2044;48.692;9.020;2023-02-01T07:29:49;3.17;;;2.87;;
4057;SDS011;2044;48.692;9.020;2023-02-01T07:32:16;6.43;;;3.27;;
4057;SDS011;2044;48.692;9.020;2023-02-01T07:34:44;3.70;;;2.80;;
4057;SDS011;2044;48.692;9.020;2023-02-01T07:37:11;6.97;;;2.30;;
4057;SDS011;2044;48.692;9.020;2023-02-01T07:39:38;3.70;;;2.00;;
4057;SDS011;2044;48.692;9.020;2023-02-01T07:42:05;3.27;;;2.20;;
4057;SDS011;2044;48.692;9.020;2023-02-01T07:44:32;4.77;;;2.80;;
4057;SDS011;2044;48.692;9.020;2023-02-01T07:46:59;3.13;;;2.30;;
4057;SDS011;2044;48.692;9.020;2023-02-01T07:49:25;4.63;;;2.53;;
4057;SDS011;2044;48.692;9.020;2023-02-01T07:51:53;4.13;;;2.97;;
4057;SDS011;2044;48.692;9.020;2023-02-01T07:54:20;3.73;;;2.50;;
4057;SDS011;2044;48.692;9.020;2023-02-01T07:56:49;5.23;;;3.00;;
4057;SDS011;2044;48.692;9.020;2023-02-01T07:59:16;2.03;;;1.83;;
4057;SDS011;2044;48.692;9.020;2023-02-01T08:01:43;4.67;;;2.53;;
4057;SDS011;2044;48.692;9.020;2023-02-01T08:04:09;6.40;;;2.53;;
4057;SDS011;2044;48.692;9.020;2023-02-01T08:06:38;3.90;;;2.33;;
4057;SDS011;2044;48.692;9.020;2023-02-01T08:09:07;5.40;;;2.80;;
4057;SDS011;2044;48.692;9.020;2023-02-01T08:11:35;4.57;;;2.80;;
4057;SDS011;2044;48.692;9.020;2023-02-01T08:14:03;5.20;;;3.00;;
4057;SDS011;2044;48.692;9.020;2023-02-01T08:16:31;4.70;;;3.40;;
4057;SDS011;2044;48.692;9.020;2023-02-01T08:19:00;4.17;;;2.47;;
4057;SDS011;2044;48.692;9.020;2023-02-01T08:21:27;14.83;;;3.60;;
4057;SDS011;2044;48.692;9.020;2023-02-01T08:24:01;4.13;;;2.90;;
4057;SDS011;2044;48.692;9.020;2023-02-01T08:26:30;6.03;;;2.80;;
4057;SDS011;2044;48.692;9.020;2023-02-01T08:28:58;7.27;;;3.23;;
4057;SDS011;2044;48.692;9.020;2023-02-01T08:31:26;6.00;;;3.43;;
4057;SDS011;2044;48.692;9.020;2023-02-01T08:33:55;3.37;;;2.80;;
4057;SDS011;2044;48.692;9.020;2023-02-01T08:36:24;7.27;;;3.43;;
4057;SDS011;2044;48.692;9.020;2023-02-01T08:38:52;5.13;;;3.00;;
4057;SDS011;2044;48.692;9.020;2023-02-01T08:41:19;3.57;;;2.40;;
4057;SDS011;2044;48.692;9.020;2023-02-01T08:43:49;13.73;;;3.40;;
4057;SDS011;2044;48.692;9.020;2023-02-01T08:46:16;4.97;;;2.93;;
4057;SDS011;2044;48.692;9.020;2023-02-01T08:48:43;4.60;;;3.20;;
4057;SDS011;2044;48.692;9.020;2023-02-01T08:51:12;6.57;;;2.37;;
4057;SDS011;2044;48.692;9.020;2023-02-01T08:53:40;3.73;;;2.80;;
4057;SDS011;2044;48.692;9.020;2023-02-01T08:56:07;13.97;;;3.07;;
4057;SDS011;2044;48.692;9.020;2023-02-01T08:58:35;4.30;;;2.70;;
4057;SDS011;2044;48.692;9.020;2023-02-01T09:01:04;6.30;;;2.10;;
4057;SDS011;2044;48.692;9.020;2023-02-01T09:03:31;2.80;;;2.20;;
4057;SDS011;2044;48.692;9.020;2023-02-01T09:06:01;5.77;;;2.57;;
4057;SDS011;2044;48.692;9.020;2023-02-01T09:08:29;3.47;;;1.80;;
4057;SDS011;2044;48.692;9.020;2023-02-01T09:10:58;3.53;;;2.07;;
4057;SDS011;2044;48.692;9.020;2023-02-01T09:13:26;7.93;;;2.13;;
4057;SDS011;2044;48.692;9.020;2023-02-01T09:15:53;4.00;;;1.93;;
4057;SDS011;2044;48.692;9.020;2023-02-01T09:18:21;2.53;;;1.73;;
4057;SDS011;2044;48.692;9.020;2023-02-01T09:20:48;13.20;;;2.50;;
4057;SDS011;2044;48.692;9.020;2023-02-01T09:23:15;4.00;;;2.10;;
4057;SDS011;2044;48.692;9.020;2023-02-01T09:25:41;3.93;;;2.20;;
4057;SDS011;2044;48.692;9.020;2023-02-01T09:28:08;4.10;;;2.30;;
4057;SDS011;2044;48.692;9.020;2023-02-01T09:30:35;3.17;;;1.87;;
4057;SDS011;2044;48.692;9.020;2023-02-01T09:33:03;3.47;;;2.53;;
4057;SDS011;2044;48.692;9.020;2023-02-01T09:35:31;4.83;;;1.87;;
4057;SDS011;2044;48.692;9.020;2023-02-01T09:37:58;3.47;;;1.97;;
4057;SDS011;2044;48.692;9.020;2023-02-01T09:40:25;4.80;;;2.93;;
4057;SDS011;2044;48.692;9.020;2023-02-01T09:42:58;4.30;;;2.40;;
4057;SDS011;2044;48.692;9.020;2023-02-01T09:45:36;5.27;;;3.40;;
4057;SDS011;2044;48.692;9.020;2023-02-01T09:48:11;7.93;;;4.73;;
4057;SDS011;2044;48.692;9.020;2023-02-01T09:50:45;3.80;;;2.90;;
4057;SDS011;2044;48.692;9.020;2023-02-01T09:53:15;3.90;;;2.87;;
4057;SDS011;2044;48.692;9.020;2023-02-01T09:55:48;11.47;;;4.03;;
4057;SDS011;2044;48.692;9.020;2023-02-01T09:58:17;7.80;;;3.30;;
4057;SDS011;2044;48.692;9.020;2023-02-01T10:00:51;5.50;;;3.10;;
4057;SDS011;2044;48.692;9.020;2023-02-01T10:03:20;9.43;;;4.37;;
4057;SDS011;2044;48.692;9.020;2023-02-01T10:05:56;6.13;;;3.57;;
4057;SDS011;2044;48.692;9.020;2023-02-01T10:08:49;4.10;;;2.63;;
4057;SDS011;2044;48.692;9.020;2023-02-01T10:11:28;7.13;;;3.60;;
4057;SDS011;2044;48.692;9.020;2023-02-01T10:14:15;8.33;;;5.00;;
4057;SDS011;2044;48.692;9.020;2023-02-01T10:17:01;3.27;;;2.20;;
4057;SDS011;2044;48.692;9.020;2023-02-01T10:19:39;7.93;;;3.50;;
4057;SDS011;2044;48.692;9.020;2023-02-01T10:22:16;4.70;;;2.23;;
4057;SDS011;2044;48.692;9.020;2023-02-01T10:24:53;6.30;;;2.57;;
4057;SDS011;2044;48.692;9.020;2023-02-01T10:27:27;12.40;;;2.90;;
4057;SDS011;2044;48.692;9.020;2023-02-01T10:29:59;10.40;;;3.70;;
4057;SDS011;2044;48.692;9.020;2023-02-01T10:32:33;3.20;;;2.90;;
4057;SDS011;2044;48.692;9.020;2023-02-01T10:35:01;4.80;;;2.57;;
4057;SDS011;2044;48.692;9.020;2023-02-01T10:37:36;3.00;;;2.40;;
4057;SDS011;2044;48.692;9.020;2023-02-01T10:40:05;4.50;;;3.00;;
4057;SDS011;2044;48.692;9.020;2023-02-01T10:42:42;12.33;;;3.70;;
4057;SDS011;2044;48.692;9.020;2023-02-01T10:45:11;6.37;;;2.53;;
4057;SDS011;2044;48.692;9.020;2023-02-01T10:47:40;6.80;;;2.60;;
4057;SDS011;2044;48.692;9.020;2023-02-01T10:50:12;6.30;;;2.60;;
4057;SDS011;2044;48.692;9.020;2023-02-01T10:52:46;3.60;;;2.40;;
4057;SDS011;2044;48.692;9.020;2023-02-01T10:58:06;5.23;;;2.90;;
4057;SDS011;2044;48.692;9.020;2023-02-01T11:00:38;12.97;;;4.40;;
4057;SDS011;2044;48.692;9.020;2023-02-01T11:03:32;8.00;;;3.47;;
4057;SDS011;2044;48.692;9.020;2023-02-01T11:06:02;7.40;;;3.17;;
4057;SDS011;2044;48.692;9.020;2023-02-01T11:08:47;7.00;;;2.80;;
4057;SDS011;2044;48.692;9.020;2023-02-01T11:11:14;5.83;;;3.37;;
4057;SDS011;2044;48.692;9.020;2023-02-01T11:13:42;10.87;;;3.30;;
4057;SDS011;2044;48.692;9.020;2023-02-01T11:16:11;5.30;;;2.90;;
4057;SDS011;2044;48.692;9.020;2023-02-01T11:18:39;6.87;;;3.10;;
4057;SDS011;2044;48.692;9.020;2023-02-01T11:21:08;6.67;;;4.47;;
4057;SDS011;2044;48.692;9.020;2023-02-01T11:23:39;8.63;;;3.40;;
4057;SDS011;2044;48.692;9.020;2023-02-01T11:26:12;5.83;;;2.93;;
4057;SDS011;2044;48.692;9.020;2023-02-01T11:28:44;7.97;;;4.10;;
4057;SDS011;2044;48.692;9.020;2023-02-01T11:31:19;6.83;;;3.60;;
4057;SDS011;2044;48.692;9.020;2023-02-01T11:33:47;4.43;;;2.43;;
4057;SDS011;2044;48.692;9.020;2023-02-01T11:36:17;5.80;;;3.43;;
4057;SDS011;2044;48.692;9.020;2023-02-01T11:38:49;3.80;;;2.50;;
4057;SDS011;2044;48.692;9.020;2023-02-01T11:41:22;3.43;;;2.50;;
4057;SDS011;2044;48.692;9.020;2023-02-01T11:43:51;7.10;;;3.10;;
4057;SDS011;2044;48.692;9.020;2023-02-01T11:46:21;9.60;;;2.77;;
4057;SDS011;2044;48.692;9.020;2023-02-01T11:48:51;4.50;;;3.30;;
4057;SDS011;2044;48.692;9.020;2023-02-01T11:51:23;5.10;;;3.40;;
4057;SDS011;2044;48.692;9.020;2023-02-01T11:54:03;3.67;;;3.10;;
4057;SDS011;2044;48.692;9.020;2023-02-01T11:56:41;7.83;;;3.80;;
4057;SDS011;2044;48.692;9.020;2023-02-01T11:59:20;11.87;;;4.30;;
4057;SDS011;2044;48.692;9.020;2023-02-01T12:05:19;2.80;;;2.60;;
4057;SDS011;2044;48.692;9.020;2023-02-01T12:08:02;4.33;;;2.90;;
4057;SDS011;2044;48.692;9.020;2023-02-01T12:10:45;4.40;;;3.00;;
4057;SDS011;2044;48.692;9.020;2023-02-01T12:13:26;3.10;;;2.80;;
4057;SDS011;2044;48.692;9.020;2023-02-01T12:16:07;4.27;;;3.17;;
4057;SDS011;2044;48.692;9.020;2023-02-01T12:18:48;4.97;;;3.17;;
4057;SDS011;2044;48.692;9.020;2023-02-01T12:21:32;5.33;;;3.27;;
4057;SDS011;2044;48.692;9.020;2023-02-01T12:24:24;3.03;;;2.83;;
4057;SDS011;2044;48.692;9.020;2023-02-01T12:27:27;7.63;;;2.77;;
4057;SDS011;2044;48.692;9.020;2023-02-01T12:30:24;5.87;;;3.10;;
4057;SDS011;2044;48.692;9.020;2023-02-01T12:33:07;6.70;;;3.87;;
4057;SDS011;2044;48.692;9.020;2023-02-01T12:35:47;6.70;;;2.83;;
4057;SDS011;2044;48.692;9.020;2023-02-01T12:38:28;7.90;;;3.10;;
4057;SDS011;2044;48.692;9.020;2023-02-01T12:41:10;4.53;;;3.23;;
4057;SDS011;2044;48.692;9.020;2023-02-01T12:43:52;3.87;;;3.50;;
4057;SDS011;2044;48.692;9.020;2023-02-01T12:46:26;8.10;;;3.57;;
4057;SDS011;2044;48.692;9.020;2023-02-01T12:48:56;5.80;;;3.40;;
4057;SDS011;2044;48.692;9.020;2023-02-01T12:51:27;9.10;;;3.10;;
4057;SDS011;2044;48.692;9.020;2023-02-01T12:53:59;3.60;;;2.73;;
4057;SDS011;2044;48.692;9.020;2023-02-01T12:56:31;5.07;;;3.33;;
4057;SDS011;2044;48.692;9.020;2023-02-01T12:59:02;5.23;;;2.57;;
4057;SDS011;2044;48.692;9.020;2023-02-01T13:01:39;4.67;;;2.63;;
4057;SDS011;2044;48.692;9.020;2023-02-01T13:04:11;2.70;;;2.50;;
4057;SDS011;2044;48.692;9.020;2023-02-01T13:06:43;4.77;;;2.57;;
4057;SDS011;2044;48.692;9.020;2023-02-01T13:09:17;2.53;;;2.33;;
4057;SDS011;2044;48.692;9.020;2023-02-01T13:11:49;5.57;;;2.57;;
4057;SDS011;2044;48.692;9.020;2023-02-01T13:14:20;3.63;;;2.20;;
4057;SDS011;2044;48.692;9.020;2023-02-01T13:16:56;2.43;;;2.20;;
4057;SDS011;2044;48.692;9.020;2023-02-01T13:19:27;3.57;;;2.60;;
4057;SDS011;2044;48.692;9.020;2023-02-01T13:22:02;3.50;;;2.37;;
4057;SDS011;2044;48.692;9.020;2023-02-01T13:24:35;4.23;;;2.43;;
4057;SDS011;2044;48.692;9.020;2023-02-01T13:27:08;5.50;;;2.07;;
4057;SDS011;2044;48.692;9.020;2023-02-01T13:29:37;8.40;;;2.10;;
4057;SDS011;2044;48.692;9.020;2023-02-01T13:32:23;3.70;;;1.93;;
4057;SDS011;2044;48.692;9.020;2023-02-01T13:38:30;1.80;;;1.70;;
4057;SDS011;2044;48.692;9.020;2023-02-01T13:41:13;2.53;;;1.70;;
4057;SDS011;2044;48.692;9.020;2023-02-01T13:43:52;3.43;;;2.33;;
4057;SDS011;2044;48.692;9.020;2023-02-01T13:46:21;3.53;;;2.37;;
4057;SDS011;2044;48.692;9.020;2023-02-01T13:48:50;14.00;;;2.80;;
4057;SDS011;2044;48.692;9.020;2023-02-01T13:51:31;3.70;;;2.40;;
4057;SDS011;2044;48.692;9.020;2023-02-01T13:54:01;3.57;;;1.57;;
4057;SDS011;2044;48.692;9.020;2023-02-01T13:56:28;7.27;;;2.67;;
4057;SDS011;2044;48.692;9.020;2023-02-01T14:08:23;4.47;;;2.70;;
4057;SDS011;2044;48.692;9.020;2023-02-01T14:11:03;11.33;;;3.10;;
4057;SDS011;2044;48.692;9.020;2023-02-01T14:13:30;8.10;;;3.10;;
4057;SDS011;2044;48.692;9.020;2023-02-01T14:16:12;10.60;;;5.00;;
4057;SDS011;2044;48.692;9.020;2023-02-01T14:18:59;8.50;;;4.40;;
4057;SDS011;2044;48.692;9.020;2023-02-01T14:21:28;6.90;;;2.90;;
4057;SDS011;2044;48.692;9.020;2023-02-01T14:24:02;5.60;;;2.70;;
4057;SDS011;2044;48.692;9.020;2023-02-01T14:26:42;4.33;;;3.03;;
4057;SDS011;2044;48.692;9.020;2023-02-01T14:29:15;7.70;;;2.80;;
4057;SDS011;2044;48.692;9.020;2023-02-01T14:31:52;10.53;;;2.80;;
4057;SDS011;2044;48.692;9.020;2023-02-01T14:34:30;3.03;;;2.67;;
4057;SDS011;2044;48.692;9.020;2023-02-01T14:37:03;7.33;;;3.53;;
4057;SDS011;2044;48.692;9.020;2023-02-01T14:39:38;4.70;;;3.00;;
4057;SDS011;2044;48.692;9.020;2023-02-01T14:42:26;29.47;;;16.13;;
4057;SDS011;2044;48.692;9.020;2023-02-01T14:44:55;45.53;;;21.70;;
4057;SDS011;2044;48.692;9.020;2023-02-01T14:47:42;36.97;;;22.23;;
4057;SDS011;2044;48.692;9.020;2023-02-01T14:50:13;84.33;;;38.83;;
4057;SDS011;2044;48.692;9.020;2023-02-01T14:52:51;34.60;;;18.53;;
4057;SDS011;2044;48.692;9.020;2023-02-01T14:55:33;24.50;;;13.27;;
4057;SDS011;2044;48.692;9.020;2023-02-01T14:58:05;43.97;;;21.77;;
4057;SDS011;2044;48.692;9.020;2023-02-01T15:00:41;37.43;;;21.63;;
4057;SDS011;2044;48.692;9.020;2023-02-01T15:03:23;39.30;;;24.07;;
4057;SDS011;2044;48.692;9.020;2023-02-01T15:06:01;38.87;;;22.87;;
4057;SDS011;2044;48.692;9.020;2023-02-01T15:08:31;17.53;;;9.47;;
4057;SDS011;2044;48.692;9.020;2023-02-01T15:11:02;34.93;;;20.20;;
4057;SDS011;2044;48.692;9.020;2023-02-01T15:13:32;32.23;;;16.50;;
4057;SDS011;2044;48.692;9.020;2023-02-01T15:16:00;14.70;;;9.60;;
4057;SDS011;2044;48.692;9.020;2023-02-01T15:18:27;9.40;;;6.57;;
4057;SDS011;2044;48.692;9.020;2023-02-01T15:20:58;5.77;;;5.13;;
4057;SDS011;2044;48.692;9.020;2023-02-01T15:23:26;20.73;;;12.10;;
4057;SDS011;2044;48.692;9.020;2023-02-01T15:25:55;5.30;;;4.57;;
4057;SDS011;2044;48.692;9.020;2023-02-01T15:28:23;8.40;;;5.83;;
4057;SDS011;2044;48.692;9.020;2023-02-01T15:30:54;15.10;;;9.90;;
4057;SDS011;2044;48.692;9.020;2023-02-01T15:33:22;13.30;;;11.60;;
4057;SDS011;2044;48.692;9.020;2023-02-01T15:35:50;14.47;;;9.87;;
4057;SDS011;2044;48.692;9.020;2023-02-01T15:38:18;8.53;;;5.07;;
4057;SDS011;2044;48.692;9.020;2023-02-01T15:40:54;19.23;;;9.40;;
4057;SDS011;2044;48.692;9.020;2023-02-01T15:43:23;18.10;;;9.10;;
4057;SDS011;2044;48.692;9.020;2023-02-01T15:45:55;4.77;;;3.50;;
4057;SDS011;2044;48.692;9.020;2023-02-01T15:48:23;13.43;;;5.90;;
4057;SDS011;2044;48.692;9.020;2023-02-01T15:50:52;5.83;;;3.60;;
4057;SDS011;2044;48.692;9.020;2023-02-01T15:53:21;6.30;;;5.30;;
4057;SDS011;2044;48.692;9.020;2023-02-01T15:55:51;7.90;;;3.70;;
4057;SDS011;2044;48.692;9.020;2023-02-01T15:58:20;16.73;;;3.20;;
4057;SDS011;2044;48.692;9.020;2023-02-01T16:00:50;45.45;;;26.17;;
4057;SDS011;2044;48.692;9.020;2023-02-01T16:03:27;9.37;;;5.97;;
4057;SDS011;2044;48.692;9.020;2023-02-01T16:06:00;17.13;;;9.40;;